Latest Weather Observations for Ocean Reef

IDW60801

Issued at 10:32 pm WST Saturday 29 August 2015 (issued every 30 minutes, with the page automatically refreshed every 10 minutes)

About weather observations | Map of weather stations | Latest weather observations for WA | Other Formats
Station Details ID: 009214 Name: OCEAN REEF Lat: -31.76 Lon: 115.73 Height: 10.0 m
Data from the previous 72 hours. | See also: Recent months at Ocean Reef
Date/Time
WST
Temp
°C
App
Temp
°C
Dew
Point
Rel
Hum
%
Delta-T
°C
Wind Press
QNH
hPa
Press
MSL
hPa
Rain
since 9 am
mm
Dir
 
Spd
km/h
Gust
km/h
Spd
kts
Gust
kts
29/10:30pm - - - - - WSW 32 46 17 25 - - -
29/10:00pm - - - - - WSW 30 41 16 22 - - -
29/09:30pm - - - - - W 37 44 20 24 - - -
29/09:03pm - - - - - NNW 26 54 14 29 - - -
29/09:00pm - - - - - NNW 19 41 10 22 - - -
29/08:30pm - - - - - N 17 24 9 13 - - -
29/08:00pm - - - - - N 24 32 13 17 - - -
29/07:30pm - - - - - NNW 26 30 14 16 - - -
29/07:00pm - - - - - NW 28 32 15 17 - - -
29/06:30pm - - - - - NW 28 32 15 17 - - -
29/06:00pm - - - - - NW 24 28 13 15 - - -
29/05:30pm - - - - - NW 28 32 15 17 - - -
29/05:00pm - - - - - NW 28 33 15 18 - - -
29/04:30pm - - - - - NW 24 30 13 16 - - -
29/04:00pm - - - - - NW 24 28 13 15 - - -
29/03:30pm - - - - - WNW 24 28 13 15 - - -
29/03:00pm - - - - - NW 28 32 15 17 - - -
29/02:30pm - - - - - NW 28 32 15 17 - - -
29/02:00pm - - - - - NNW 35 41 19 22 - - -
29/01:30pm - - - - - NNW 37 41 20 22 - - -
29/01:00pm - - - - - NNW 39 46 21 25 - - -
29/12:30pm - - - - - NNW 37 43 20 23 - - -
29/12:00pm - - - - - NNW 48 56 26 30 - - -
29/11:30am - - - - - NNW 37 50 20 27 - - -
29/11:00am - - - - - N 35 46 19 25 - - -
29/10:30am - - - - - N 30 46 16 25 - - -
29/10:00am - - - - - N 22 37 12 20 - - -
29/09:30am - - - - - NNE 22 33 12 18 - - -
29/09:00am - - - - - NNE 22 32 12 17 - - -
29/08:30am - - - - - NE 24 33 13 18 - - -
29/08:00am - - - - - NE 24 32 13 17 - - -
29/07:30am - - - - - NE 24 33 13 18 - - -
29/07:00am - - - - - NE 22 30 12 16 - - -
29/06:30am - - - - - NNE 19 28 10 15 - - -
29/06:00am - - - - - NE 19 26 10 14 - - -
29/05:30am - - - - - NE 20 28 11 15 - - -
29/05:00am - - - - - NE 19 26 10 14 - - -
29/04:30am - - - - - NE 19 24 10 13 - - -
29/04:00am - - - - - NE 17 26 9 14 - - -
29/03:30am - - - - - NE 17 22 9 12 - - -
29/03:00am - - - - - NE 17 22 9 12 - - -
29/02:30am - - - - - NNE 15 20 8 11 - - -
29/02:00am - - - - - NE 17 19 9 10 - - -
29/01:30am - - - - - NNE 13 17 7 9 - - -
29/01:00am - - - - - NNE 15 19 8 10 - - -
29/12:30am - - - - - NE 17 22 9 12 - - -
29/12:00am - - - - - NNE 15 19 8 10 - - -
 
Date/Time
WST
Temp
°C
App
Temp
°C
Dew
Point
Rel
Hum
%
Delta-T
°C
Wind Press
QNH
hPa
Press
MSL
hPa
Rain
since 9 am
mm
Dir
 
Spd
km/h
Gust
km/h
Spd
kts
Gust
kts
28/11:30pm - - - - - NNE 13 17 7 9 - - -
28/11:00pm - - - - - NNE 15 20 8 11 - - -
28/10:30pm - - - - - NNE 13 17 7 9 - - -
28/10:00pm - - - - - NNE 13 17 7 9 - - -
28/09:30pm - - - - - NNE 13 15 7 8 - - -
28/09:00pm - - - - - NNE 11 15 6 8 - - -
28/08:30pm - - - - - NE 11 13 6 7 - - -
28/08:00pm - - - - - NNE 9 11 5 6 - - -
28/07:30pm - - - - - N 9 9 5 5 - - -
28/07:00pm - - - - - N 9 11 5 6 - - -
28/06:30pm - - - - - N 9 11 5 6 - - -
28/06:00pm - - - - - NNE 6 9 3 5 - - -
28/05:30pm - - - - - N 11 11 6 6 - - -
28/05:00pm - - - - - NNW 19 22 10 12 - - -
28/04:30pm - - - - - NNW 19 20 10 11 - - -
28/04:00pm - - - - - NNW 15 17 8 9 - - -
28/03:30pm - - - - - NNW 17 19 9 10 - - -
28/03:00pm - - - - - NW 20 26 11 14 - - -
28/02:30pm - - - - - NW 30 33 16 18 - - -
28/02:00pm - - - - - NW 30 33 16 18 - - -
28/01:30pm - - - - - NW 32 39 17 21 - - -
28/01:00pm - - - - - NNW 35 41 19 22 - - -
28/12:30pm - - - - - NNW 35 43 19 23 - - -
28/12:00pm - - - - - NNW 30 35 16 19 - - -
28/11:30am - - - - - NNW 37 43 20 23 - - -
28/11:21am - - - - - NNW 32 41 17 22 - - -
28/11:00am - - - - - NNW 17 20 9 11 - - -
28/10:30am - - - - - NNW 24 33 13 18 - - -
28/10:00am - - - - - N 15 20 8 11 - - -
28/09:30am - - - - - N 19 26 10 14 - - -
28/09:00am - - - - - NNE 17 26 9 14 - - -
28/08:30am - - - - - NNE 19 26 10 14 - - -
28/08:00am - - - - - NNE 20 28 11 15 - - -
28/07:30am - - - - - NNE 17 30 9 16 - - -
28/07:00am - - - - - NE 17 24 9 13 - - -
28/06:30am - - - - - NNE 19 24 10 13 - - -
28/06:00am - - - - - NNE 15 20 8 11 - - -
28/05:30am - - - - - NE 13 19 7 10 - - -
28/05:00am - - - - - NNE 13 17 7 9 - - -
28/04:30am - - - - - NNE 15 19 8 10 - - -
28/04:00am - - - - - NNE 17 26 9 14 - - -
28/03:30am - - - - - NNE 17 22 9 12 - - -
28/03:00am - - - - - NNE 15 19 8 10 - - -
28/02:30am - - - - - NNE 15 19 8 10 - - -
28/02:00am - - - - - NNE 15 20 8 11 - - -
28/01:30am - - - - - NNE 17 24 9 13 - - -
28/01:00am - - - - - NNE 17 22 9 12 - - -
28/12:30am - - - - - NNE 17 20 9 11 - - -
28/12:00am - - - - - NNE 15 19 8 10 - - -
 
Date/Time
WST
Temp
°C
App
Temp
°C
Dew
Point
Rel
Hum
%
Delta-T
°C
Wind Press
QNH
hPa
Press
MSL
hPa
Rain
since 9 am
mm
Dir
 
Spd
km/h
Gust
km/h
Spd
kts
Gust
kts
27/11:30pm - - - - - NNE 13 19 7 10 - - -
27/11:00pm - - - - - NNE 13 17 7 9 - - -
27/10:30pm - - - - - NNE 13 17 7 9 - - -
27/10:00pm - - - - - N 15 19 8 10 - - -
27/09:30pm - - - - - NNE 13 15 7 8 - - -
27/09:00pm - - - - - N 13 17 7 9 - - -
27/08:30pm - - - - - N 15 20 8 11 - - -
27/08:00pm - - - - - N 17 20 9 11 - - -
27/07:30pm - - - - - N 17 19 9 10 - - -
27/07:00pm - - - - - N 13 13 7 7 - - -
27/06:30pm - - - - - NNW 7 11 4 6 - - -
27/06:00pm - - - - - CALM 0 0 0 0 - - -
27/05:30pm - - - - - CALM 0 0 0 0 - - -
27/05:00pm - - - - - WNW 7 9 4 5 - - -
27/04:30pm - - - - - SSW 7 11 4 6 - - -
27/04:00pm - - - - - SSW 7 9 4 5 - - -
27/03:30pm - - - - - WNW 7 11 4 6 - - -
27/03:00pm - - - - - W 11 17 6 9 - - -
27/02:30pm - - - - - NNW 22 32 12 17 - - -
27/02:00pm - - - - - NNE 19 30 10 16 - - -
27/01:30pm - - - - - NE 17 32 9 17 - - -
27/01:00pm - - - - - ENE 17 28 9 15 - - -
27/12:30pm - - - - - ENE 22 33 12 18 - - -
27/12:00pm - - - - - ENE 22 30 12 16 - - -
27/11:30am - - - - - ENE 20 33 11 18 - - -
27/11:00am - - - - - ENE 24 32 13 17 - - -
27/10:30am - - - - - ENE 26 33 14 18 - - -
27/10:00am - - - - - ENE 20 30 11 16 - - -
27/09:30am - - - - - ENE 19 28 10 15 - - -
27/09:00am - - - - - ENE 24 33 13 18 - - -
27/08:30am - - - - - ENE 22 32 12 17 - - -
27/08:00am - - - - - ENE 24 32 13 17 - - -
27/07:30am - - - - - ENE 22 30 12 16 - - -
27/07:00am - - - - - E 17 24 9 13 - - -
27/06:30am - - - - - E 17 24 9 13 - - -
27/06:00am - - - - - E 17 22 9 12 - - -
27/05:30am - - - - - E 17 24 9 13 - - -
27/05:00am - - - - - E 17 20 9 11 - - -
27/04:30am - - - - - E 17 20 9 11 - - -
27/04:00am - - - - - E 17 20 9 11 - - -
27/03:30am - - - - - E 17 20 9 11 - - -
27/03:00am - - - - - ENE 17 22 9 12 - - -
27/02:30am - - - - - E 15 19 8 10 - - -
27/02:00am - - - - - E 15 20 8 11 - - -
27/01:30am - - - - - E 15 19 8 10 - - -
27/01:00am - - - - - ENE 15 19 8 10 - - -
27/12:30am - - - - - ENE 15 19 8 10 - - -
27/12:00am - - - - - ENE 17 24 9 13 - - -
 
Date/Time
WST
Temp
°C
App
Temp
°C
Dew
Point
Rel
Hum
%
Delta-T
°C
Wind Press
QNH
hPa
Press
MSL
hPa
Rain
since 9 am
mm
Dir
 
Spd
km/h
Gust
km/h
Spd
kts
Gust
kts
26/11:30pm - - - - - ENE 17 20 9 11 - - -
26/11:00pm - - - - - ENE 17 20 9 11 - - -

Other Formats:

Comma delimited format used in spreadsheet applications
http://www.bom.gov.au/fwo/IDW60801/IDW60801.94607.axf

JavaScript Object Notation format (JSON) in row-major order
http://www.bom.gov.au/fwo/IDW60801/IDW60801.94607.json